createdAt,value
2018-09-18T00:01:33.995Z,4.67
2018-09-18T00:04:02.603Z,3.80
2018-09-18T00:06:33.991Z,4.43
2018-09-18T00:09:02.689Z,4.40
2018-09-18T00:11:31.212Z,4.13
2018-09-18T00:13:59.686Z,4.00
2018-09-18T00:16:28.161Z,4.37
2018-09-18T00:18:56.617Z,4.00
2018-09-18T00:21:25.252Z,4.63
2018-09-18T00:23:53.696Z,4.70
2018-09-18T00:26:22.324Z,4.00
2018-09-18T00:28:50.992Z,4.10
2018-09-18T00:31:19.555Z,5.17
2018-09-18T00:33:47.949Z,4.07
2018-09-18T00:36:16.396Z,4.13
2018-09-18T00:38:45.058Z,4.67
2018-09-18T00:41:13.663Z,5.00
2018-09-18T00:43:42.412Z,4.10
2018-09-18T00:46:11.469Z,4.73
2018-09-18T00:48:40.043Z,4.40
2018-09-18T00:51:08.738Z,4.93
2018-09-18T00:53:37.273Z,3.70
2018-09-18T00:56:05.849Z,4.73
2018-09-18T00:58:34.365Z,3.97
2018-09-18T01:01:02.850Z,4.50
2018-09-18T01:03:31.405Z,4.43
2018-09-18T01:05:59.847Z,4.50
2018-09-18T01:08:28.292Z,4.43
2018-09-18T01:10:56.962Z,4.40
2018-09-18T01:13:25.360Z,4.10
2018-09-18T01:15:53.783Z,4.37
2018-09-18T01:18:22.403Z,4.50
2018-09-18T01:20:50.983Z,4.60
2018-09-18T01:23:19.519Z,4.87
2018-09-18T01:25:48.074Z,4.60
2018-09-18T01:28:16.590Z,4.50
2018-09-18T01:30:45.205Z,4.70
2018-09-18T01:33:13.772Z,4.20
2018-09-18T01:35:42.474Z,4.90
2018-09-18T01:38:11.100Z,4.47
2018-09-18T01:40:39.787Z,4.63
2018-09-18T01:43:08.461Z,4.97
2018-09-18T01:45:37.038Z,4.43
2018-09-18T01:48:05.696Z,4.57
2018-09-18T01:50:34.284Z,4.80
2018-09-18T01:53:03.004Z,5.23
2018-09-18T01:55:31.640Z,4.40
2018-09-18T01:58:00.341Z,4.87
2018-09-18T02:00:28.913Z,4.27
2018-09-18T02:02:57.526Z,4.40
2018-09-18T02:05:26.133Z,4.63
2018-09-18T02:07:54.662Z,5.00
2018-09-18T02:10:23.297Z,5.00
2018-09-18T02:12:51.982Z,4.33
2018-09-18T02:15:20.492Z,4.50
2018-09-18T02:17:49.100Z,4.80
2018-09-18T02:20:17.766Z,5.40
2018-09-18T02:22:46.470Z,4.90
2018-09-18T02:25:14.953Z,4.27
2018-09-18T02:27:43.620Z,4.80
2018-09-18T02:30:12.127Z,4.90
2018-09-18T02:32:40.750Z,6.10
2018-09-18T02:35:09.431Z,4.40
2018-09-18T02:37:38.063Z,5.03
2018-09-18T02:40:06.925Z,4.67
2018-09-18T02:42:35.574Z,4.53
2018-09-18T02:45:04.129Z,4.90
2018-09-18T02:47:32.606Z,5.60
2018-09-18T02:50:01.212Z,4.80
2018-09-18T02:52:29.747Z,4.73
2018-09-18T02:54:58.411Z,4.57
2018-09-18T02:57:26.953Z,4.40
2018-09-18T02:59:55.622Z,4.80
2018-09-18T03:02:24.317Z,4.30
2018-09-18T03:04:52.853Z,4.70
2018-09-18T03:07:21.387Z,4.70
2018-09-18T03:09:49.891Z,4.67
2018-09-18T03:12:18.399Z,4.70
2018-09-18T03:14:49.083Z,4.17
2018-09-18T03:17:17.801Z,5.57
2018-09-18T03:19:46.407Z,5.13
2018-09-18T03:22:14.986Z,4.77
2018-09-18T03:24:43.501Z,4.93
2018-09-18T03:27:12.005Z,4.43
2018-09-18T03:29:40.498Z,3.70
2018-09-18T03:32:09.251Z,5.20
2018-09-18T03:34:37.934Z,5.00
2018-09-18T03:37:06.495Z,4.73
2018-09-18T03:39:34.928Z,4.27
2018-09-18T03:42:03.863Z,4.53
2018-09-18T03:44:32.360Z,4.50
2018-09-18T03:47:00.954Z,4.90
2018-09-18T03:49:29.631Z,4.27
2018-09-18T03:51:58.426Z,5.23
2018-09-18T03:54:27.045Z,4.90
2018-09-18T03:56:55.531Z,4.77
2018-09-18T03:59:24.162Z,4.67
2018-09-18T04:01:52.668Z,4.30
2018-09-18T04:04:21.269Z,4.93
2018-09-18T04:06:49.700Z,4.70
2018-09-18T04:09:18.154Z,4.53
2018-09-18T04:11:46.851Z,4.90
2018-09-18T04:14:15.455Z,4.60
2018-09-18T04:16:43.896Z,4.50
2018-09-18T04:19:12.400Z,4.43
2018-09-18T04:21:42.085Z,4.90
2018-09-18T04:24:10.707Z,4.03
2018-09-18T04:26:40.570Z,4.87
2018-09-18T04:29:09.898Z,4.80
2018-09-18T04:31:40.213Z,4.87
2018-09-18T04:34:08.962Z,4.70
2018-09-18T04:36:37.624Z,5.60
2018-09-18T04:39:10.680Z,5.23
2018-09-18T04:41:39.394Z,5.20
2018-09-18T04:44:08.471Z,4.70
2018-09-18T04:46:37.147Z,4.23
2018-09-18T04:49:05.780Z,5.07
2018-09-18T04:51:34.498Z,4.20
2018-09-18T04:54:03.260Z,4.63
2018-09-18T04:56:31.921Z,5.57
2018-09-18T04:59:01.724Z,5.47
2018-09-18T05:01:31.018Z,4.80
2018-09-18T05:03:59.939Z,4.50
2018-09-18T05:06:28.913Z,5.27
2018-09-18T05:08:58.704Z,5.13
2018-09-18T05:11:27.222Z,5.07
2018-09-18T05:13:55.959Z,5.40
2018-09-18T05:16:24.663Z,5.20
2018-09-18T05:18:53.213Z,5.47
2018-09-18T05:21:21.979Z,4.60
2018-09-18T05:23:50.507Z,5.20
2018-09-18T05:26:19.046Z,4.63
2018-09-18T05:28:48.004Z,4.40
2018-09-18T05:31:16.508Z,5.03
2018-09-18T05:33:45.098Z,4.30
2018-09-18T05:36:13.639Z,4.80
2018-09-18T05:38:42.190Z,4.77
2018-09-18T05:41:10.821Z,5.00
2018-09-18T05:43:39.253Z,5.03
2018-09-18T05:46:07.829Z,4.47
2018-09-18T05:48:36.946Z,4.47
2018-09-18T05:51:05.504Z,5.03
2018-09-18T05:53:34.394Z,5.00
2018-09-18T05:56:03.028Z,4.30
2018-09-18T05:58:31.580Z,4.20
2018-09-18T06:01:00.072Z,4.10
2018-09-18T06:03:28.586Z,4.13
2018-09-18T06:05:57.922Z,5.37
2018-09-18T06:08:26.474Z,5.33
2018-09-18T06:10:55.521Z,4.40
2018-09-18T06:13:24.137Z,5.77
2018-09-18T06:15:53.111Z,4.90
2018-09-18T06:18:21.576Z,5.30
2018-09-18T06:20:50.428Z,4.70
2018-09-18T06:23:18.848Z,5.03
2018-09-18T06:25:47.270Z,5.30
2018-09-18T06:28:15.852Z,5.10
2018-09-18T06:30:44.260Z,5.90
2018-09-18T06:33:13.178Z,5.67
2018-09-18T06:35:41.805Z,5.33
2018-09-18T06:38:10.512Z,3.93
2018-09-18T06:40:39.536Z,4.03
2018-09-18T06:43:08.198Z,5.20
2018-09-18T06:45:36.873Z,5.03
2018-09-18T06:48:05.684Z,4.03
2018-09-18T06:50:34.123Z,5.50
2018-09-18T06:53:02.565Z,4.40
2018-09-18T06:55:31.192Z,5.20
2018-09-18T06:57:59.686Z,4.13
2018-09-18T07:00:28.100Z,5.00
2018-09-18T07:02:56.800Z,4.93
2018-09-18T07:05:25.252Z,3.83
2018-09-18T07:07:53.999Z,4.50
2018-09-18T07:10:22.761Z,4.10
2018-09-18T07:12:51.256Z,4.00
2018-09-18T07:15:20.159Z,3.90
2018-09-18T07:17:48.722Z,4.20
2018-09-18T07:20:18.250Z,2.87
2018-09-18T07:22:46.970Z,3.37
2018-09-18T07:25:15.921Z,2.80
2018-09-18T07:27:44.452Z,3.20
2018-09-18T07:30:13.288Z,3.10
2018-09-18T07:32:41.842Z,3.00
2018-09-18T07:35:10.464Z,2.50
2018-09-18T07:37:38.993Z,2.70
2018-09-18T07:40:08.149Z,2.80
2018-09-18T07:42:38.308Z,3.00
2018-09-18T07:45:06.789Z,2.47
2018-09-18T07:47:35.526Z,2.47
2018-09-18T07:50:04.396Z,2.90
2018-09-18T07:52:33.147Z,2.67
2018-09-18T07:55:06.612Z,2.77
2018-09-18T07:57:35.298Z,2.60
2018-09-18T08:00:06.012Z,2.35
2018-09-18T08:02:34.546Z,2.27
2018-09-18T08:05:03.511Z,2.10
2018-09-18T08:07:32.260Z,2.02
2018-09-18T08:10:00.880Z,2.17
2018-09-18T08:12:29.599Z,2.72
2018-09-18T08:14:58.324Z,2.47
2018-09-18T08:17:26.829Z,2.25
2018-09-18T08:19:55.883Z,2.20
2018-09-18T08:22:25.119Z,2.45
2018-09-18T08:24:53.724Z,2.30
2018-09-18T08:27:22.482Z,2.52
2018-09-18T08:29:51.156Z,2.15
2018-09-18T08:32:19.674Z,2.70
2018-09-18T08:34:48.716Z,2.72
2018-09-18T08:37:17.204Z,1.92
2018-09-18T08:39:45.927Z,2.17
2018-09-18T08:42:14.613Z,2.00
2018-09-18T08:44:43.412Z,1.95
2018-09-18T08:47:11.970Z,2.12
2018-09-18T08:49:40.522Z,2.40
2018-09-18T08:52:09.108Z,2.45
2018-09-18T08:54:37.846Z,2.02
2018-09-18T08:57:06.780Z,1.85
2018-09-18T08:59:35.405Z,2.10
2018-09-18T09:02:04.078Z,1.90
2018-09-18T09:04:32.611Z,2.20
2018-09-18T09:07:01.052Z,2.12
2018-09-18T09:09:29.579Z,1.95
2018-09-18T09:11:58.076Z,1.98
2018-09-18T09:14:26.640Z,1.85
2018-09-18T09:16:55.109Z,2.05
2018-09-18T09:19:23.624Z,1.70
2018-09-18T09:21:52.199Z,1.70
2018-09-18T09:24:20.817Z,1.98
2018-09-18T09:26:49.392Z,2.00
2018-09-18T09:29:18.028Z,2.00
2018-09-18T09:31:46.836Z,2.02
2018-09-18T09:34:16.350Z,1.95
2018-09-18T09:36:45.342Z,2.00
2018-09-18T09:39:14.723Z,2.17
2018-09-18T09:41:44.024Z,2.25
2018-09-18T09:44:13.456Z,3.10
2018-09-18T09:46:42.363Z,3.40
2018-09-18T09:49:10.930Z,3.30
2018-09-18T09:51:39.822Z,3.70
2018-09-18T09:54:09.362Z,3.70
2018-09-18T09:56:37.975Z,4.03
2018-09-18T09:59:06.984Z,4.60
2018-09-18T10:01:41.005Z,4.50
2018-09-18T10:04:10.130Z,3.90
2018-09-18T10:06:40.350Z,4.27
2018-09-18T10:09:10.915Z,4.80
2018-09-18T10:11:40.090Z,5.80
2018-09-18T10:14:09.381Z,5.40
2018-09-18T10:16:38.259Z,5.73
2018-09-18T10:19:07.216Z,4.80
2018-09-18T10:21:35.850Z,4.87
2018-09-18T10:24:04.412Z,4.10
2018-09-18T10:26:33.039Z,5.10
2018-09-18T10:29:01.492Z,5.60
2018-09-18T10:31:30.605Z,5.70
2018-09-18T10:33:59.336Z,5.60
2018-09-18T10:36:27.858Z,5.50
2018-09-18T10:38:56.833Z,5.30
2018-09-18T10:41:27.290Z,5.47
2018-09-18T10:43:55.961Z,6.00
2018-09-18T10:46:25.503Z,5.70
2018-09-18T10:48:57.344Z,5.40
2018-09-18T10:51:26.637Z,5.80
2018-09-18T10:53:56.424Z,5.17
2018-09-18T10:56:25.049Z,4.90
2018-09-18T10:58:53.947Z,4.90
2018-09-18T11:01:22.907Z,5.63
2018-09-18T11:03:51.658Z,5.33
2018-09-18T11:06:20.592Z,4.33
2018-09-18T11:08:49.130Z,4.77
2018-09-18T11:11:18.091Z,5.03
2018-09-18T11:13:53.409Z,5.10
2018-09-18T11:16:22.150Z,5.13
2018-09-18T11:18:51.454Z,5.33
2018-09-18T11:21:23.052Z,4.80
2018-09-18T11:23:52.087Z,5.43
2018-09-18T11:26:26.197Z,4.70
2018-09-18T11:28:55.585Z,4.90
2018-09-18T11:31:24.073Z,4.57
2018-09-18T11:33:53.177Z,4.63
2018-09-18T11:36:21.804Z,5.10
2018-09-18T11:38:50.409Z,4.60
2018-09-18T11:41:18.972Z,3.97
2018-09-18T11:43:47.643Z,5.30
2018-09-18T11:46:16.772Z,5.17
2018-09-18T11:48:46.174Z,4.50
2018-09-18T11:51:15.008Z,3.40
2018-09-18T11:53:43.591Z,4.03
2018-09-18T11:56:12.127Z,3.60
2018-09-18T11:58:40.862Z,3.23
2018-09-18T12:01:09.508Z,3.70
2018-09-18T12:03:38.069Z,3.50
2018-09-18T12:06:07.183Z,4.30
2018-09-18T12:08:35.869Z,4.23
2018-09-18T12:11:04.414Z,3.30
2018-09-18T12:13:33.471Z,3.40
2018-09-18T12:16:02.082Z,4.10
2018-09-18T12:18:30.811Z,3.83
2018-09-18T12:20:59.430Z,3.70
2018-09-18T12:23:28.058Z,3.07
2018-09-18T12:25:56.649Z,3.50
2018-09-18T12:28:25.680Z,3.50
2018-09-18T12:30:54.397Z,3.00
2018-09-18T12:33:22.852Z,3.00
2018-09-18T12:35:51.918Z,3.20
2018-09-18T12:38:20.528Z,2.70
2018-09-18T12:40:48.946Z,2.90
2018-09-18T12:43:17.729Z,3.30
2018-09-18T12:45:46.692Z,2.73
2018-09-18T12:48:15.268Z,2.87
2018-09-18T12:50:43.710Z,4.13
2018-09-18T12:53:12.162Z,3.93
2018-09-18T12:55:40.588Z,3.10
2018-09-18T12:58:09.079Z,3.00
2018-09-18T13:00:37.570Z,3.10
2018-09-18T13:03:05.981Z,2.77
2018-09-18T13:05:34.407Z,2.73
2018-09-18T13:08:02.938Z,3.20
2018-09-18T13:10:31.347Z,3.07
2018-09-18T13:12:59.804Z,3.43
2018-09-18T13:15:28.271Z,2.80
2018-09-18T13:17:56.916Z,3.33
2018-09-18T13:20:25.360Z,3.10
2018-09-18T13:22:53.831Z,2.83
2018-09-18T13:25:22.246Z,3.10
2018-09-18T13:27:50.731Z,2.80
2018-09-18T13:30:19.101Z,2.80
2018-09-18T13:32:47.747Z,3.20
2018-09-18T13:35:16.152Z,2.80
2018-09-18T13:37:44.646Z,3.00
2018-09-18T13:40:13.059Z,2.50
2018-09-18T13:42:41.469Z,2.90
2018-09-18T13:45:09.871Z,2.37
2018-09-18T13:47:38.396Z,3.40
2018-09-18T13:50:07.168Z,2.63
2018-09-18T13:52:35.618Z,3.00
2018-09-18T13:55:04.103Z,2.97
2018-09-18T13:57:32.578Z,2.77
2018-09-18T14:00:01.042Z,2.20
2018-09-18T14:02:29.475Z,2.77
2018-09-18T14:04:58.029Z,2.40
2018-09-18T14:07:26.496Z,2.40
2018-09-18T14:09:55.002Z,3.00
2018-09-18T14:12:23.495Z,2.70
2018-09-18T14:14:52.161Z,2.70
2018-09-18T14:17:20.553Z,2.80
2018-09-18T14:19:48.943Z,2.17
2018-09-18T14:22:17.360Z,2.63
2018-09-18T14:24:45.753Z,2.40
2018-09-18T14:27:14.156Z,2.87
2018-09-18T14:29:42.586Z,2.97
2018-09-18T14:32:11.024Z,2.23
2018-09-18T14:34:39.488Z,2.70
2018-09-18T14:37:07.876Z,2.87
2018-09-18T14:39:36.268Z,2.70
2018-09-18T14:42:04.703Z,2.53
2018-09-18T14:44:33.290Z,2.33
2018-09-18T14:47:01.700Z,2.00
2018-09-18T14:49:30.131Z,2.33
2018-09-18T14:51:59.085Z,2.13
2018-09-18T14:54:27.500Z,2.10
2018-09-18T14:56:55.917Z,2.27
2018-09-18T14:59:24.665Z,2.20
2018-09-18T15:01:53.068Z,2.10
2018-09-18T15:04:21.578Z,2.87
2018-09-18T15:06:50.068Z,2.00
2018-09-18T15:09:18.536Z,2.20
2018-09-18T15:11:46.957Z,2.03
2018-09-18T15:14:15.483Z,2.17
2018-09-18T15:16:44.266Z,2.70
2018-09-18T15:19:12.660Z,2.20
2018-09-18T15:21:41.550Z,2.23
2018-09-18T15:24:09.996Z,2.90
2018-09-18T15:26:38.628Z,2.40
2018-09-18T15:29:07.111Z,2.37
2018-09-18T15:31:35.734Z,3.00
2018-09-18T15:34:04.475Z,2.70
2018-09-18T15:36:32.832Z,2.00
2018-09-18T15:39:01.703Z,2.77
2018-09-18T15:41:30.440Z,2.73
2018-09-18T15:43:58.957Z,2.70
2018-09-18T15:46:27.534Z,2.30
2018-09-18T15:48:56.036Z,2.43
2018-09-18T15:51:25.138Z,2.47
2018-09-18T15:53:53.724Z,2.03
2018-09-18T15:56:22.212Z,2.20
2018-09-18T15:58:50.949Z,2.20
2018-09-18T16:01:19.558Z,2.27
2018-09-18T16:03:48.063Z,2.07
2018-09-18T16:06:16.514Z,2.20
2018-09-18T16:08:45.049Z,2.40
2018-09-18T16:11:13.544Z,2.60
2018-09-18T16:13:42.287Z,2.33
2018-09-18T16:16:11.627Z,2.10
2018-09-18T16:18:40.295Z,2.07
2018-09-18T16:21:08.769Z,2.30
2018-09-18T16:23:37.325Z,2.33
2018-09-18T16:26:06.260Z,2.10
2018-09-18T16:28:35.106Z,2.10
2018-09-18T16:31:03.649Z,2.63
2018-09-18T16:33:32.688Z,2.30
2018-09-18T16:36:01.379Z,2.20
2018-09-18T16:38:30.328Z,2.50
2018-09-18T16:40:58.839Z,2.30
2018-09-18T16:43:27.629Z,2.90
2018-09-18T16:45:57.009Z,2.30
2018-09-18T16:48:25.757Z,2.00
2018-09-18T16:50:54.234Z,2.53
2018-09-18T16:53:22.836Z,2.30
2018-09-18T16:55:52.149Z,2.73
2018-09-18T16:58:20.788Z,2.97
2018-09-18T17:00:51.863Z,2.60
2018-09-18T17:03:20.604Z,3.03
2018-09-18T17:05:49.343Z,2.83
2018-09-18T17:08:17.988Z,2.40
2018-09-18T17:10:46.455Z,3.03
2018-09-18T17:13:15.375Z,2.60
2018-09-18T17:15:43.875Z,2.97
2018-09-18T17:18:12.323Z,3.40
2018-09-18T17:20:40.839Z,3.40
2018-09-18T17:23:09.972Z,2.70
2018-09-18T17:25:38.693Z,3.40
2018-09-18T17:28:08.154Z,3.73
2018-09-18T17:30:36.703Z,3.50
2018-09-18T17:33:05.193Z,3.87
2018-09-18T17:35:34.207Z,3.00
2018-09-18T17:38:02.956Z,3.17
2018-09-18T17:40:31.742Z,3.50
2018-09-18T17:43:00.677Z,3.30
2018-09-18T17:45:30.788Z,3.30
2018-09-18T17:48:01.074Z,3.20
2018-09-18T17:50:31.507Z,3.23
2018-09-18T17:53:05.230Z,3.37
2018-09-18T17:55:47.444Z,3.13
2018-09-18T17:58:16.131Z,3.17
2018-09-18T18:00:44.684Z,3.10
2018-09-18T18:03:13.194Z,3.93
2018-09-18T18:05:41.807Z,3.23
2018-09-18T18:08:10.525Z,3.23
2018-09-18T18:10:39.137Z,3.20
2018-09-18T18:13:07.963Z,3.67
2018-09-18T18:15:36.832Z,3.47
2018-09-18T18:18:05.515Z,3.67
2018-09-18T18:20:34.324Z,3.80
2018-09-18T18:23:02.925Z,3.50
2018-09-18T18:25:31.663Z,3.80
2018-09-18T18:28:00.212Z,3.57
2018-09-18T18:30:28.933Z,3.77
2018-09-18T18:32:57.549Z,3.40
2018-09-18T18:35:26.000Z,3.63
2018-09-18T18:37:54.450Z,3.40
2018-09-18T18:40:22.993Z,3.77
2018-09-18T18:42:51.408Z,3.80
2018-09-18T18:45:19.912Z,4.27
2018-09-18T18:47:48.615Z,3.60
2018-09-18T18:50:17.037Z,3.90
2018-09-18T18:52:45.559Z,3.30
2018-09-18T18:55:14.083Z,4.07
2018-09-18T18:57:42.584Z,4.53
2018-09-18T19:00:11.096Z,4.00
2018-09-18T19:02:39.625Z,3.33
2018-09-18T19:05:08.231Z,4.03
2018-09-18T19:07:36.868Z,3.90
2018-09-18T19:10:05.762Z,4.03
2018-09-18T19:12:34.284Z,4.10
2018-09-18T19:15:02.807Z,3.83
2018-09-18T19:17:31.307Z,4.20
2018-09-18T19:19:59.823Z,3.80
2018-09-18T19:22:28.360Z,4.00
2018-09-18T19:24:56.916Z,4.20
2018-09-18T19:27:25.501Z,4.23
2018-09-18T19:29:54.027Z,4.30
2018-09-18T19:32:23.503Z,4.00
2018-09-18T19:34:51.959Z,4.00
2018-09-18T19:37:20.503Z,3.67
2018-09-18T19:39:49.150Z,3.90
2018-09-18T19:42:17.746Z,4.10
2018-09-18T19:44:46.382Z,3.60
2018-09-18T19:47:15.006Z,4.33
2018-09-18T19:49:43.614Z,3.90
2018-09-18T19:52:12.358Z,4.17
2018-09-18T19:54:41.724Z,4.40
2018-09-18T19:57:10.361Z,4.50
2018-09-18T19:59:39.049Z,4.20
2018-09-18T20:02:07.763Z,4.90
2018-09-18T20:04:36.346Z,4.80
2018-09-18T20:07:04.989Z,4.47
2018-09-18T20:09:33.529Z,3.60
2018-09-18T20:12:02.181Z,4.27
2018-09-18T20:14:30.768Z,4.53
2018-09-18T20:16:59.447Z,4.47
2018-09-18T20:19:28.039Z,4.90
2018-09-18T20:21:57.295Z,4.87
2018-09-18T20:24:25.931Z,4.37
2018-09-18T20:26:54.548Z,4.30
2018-09-18T20:29:23.126Z,4.60
2018-09-18T20:31:51.736Z,4.00
2018-09-18T20:34:20.313Z,4.70
2018-09-18T20:36:48.995Z,3.90
2018-09-18T20:39:17.562Z,4.40
2018-09-18T20:41:46.197Z,4.90
2018-09-18T20:44:14.795Z,4.10
2018-09-18T20:46:43.372Z,3.97
2018-09-18T20:49:11.909Z,4.63
2018-09-18T20:51:40.621Z,4.40
2018-09-18T20:54:09.139Z,3.93
2018-09-18T20:56:37.759Z,4.40
2018-09-18T20:59:06.589Z,3.90
2018-09-18T21:01:35.208Z,4.60
2018-09-18T21:04:03.839Z,4.27
2018-09-18T21:06:32.421Z,4.77
2018-09-18T21:09:01.159Z,4.63
2018-09-18T21:11:29.765Z,5.60
2018-09-18T21:13:58.282Z,5.10
2018-09-18T21:16:26.906Z,4.83
2018-09-18T21:18:55.439Z,5.10
2018-09-18T21:21:24.041Z,4.73
2018-09-18T21:23:52.544Z,4.70
2018-09-18T21:26:21.200Z,4.17
2018-09-18T21:28:50.024Z,5.40
2018-09-18T21:31:18.573Z,5.53
2018-09-18T21:33:47.254Z,4.60
2018-09-18T21:36:15.905Z,4.97
2018-09-18T21:38:44.549Z,5.13
2018-09-18T21:41:13.212Z,4.97
2018-09-18T21:43:41.836Z,5.43
2018-09-18T21:46:10.392Z,5.17
2018-09-18T21:48:39.339Z,4.83
2018-09-18T21:51:08.034Z,4.83
2018-09-18T21:53:36.529Z,5.30
2018-09-18T21:56:05.056Z,4.40
2018-09-18T21:58:33.523Z,5.70
2018-09-18T22:01:04.656Z,5.63
2018-09-18T22:03:33.505Z,5.60
2018-09-18T22:06:02.569Z,5.27
2018-09-18T22:08:31.092Z,4.60
2018-09-18T22:10:59.718Z,5.67
2018-09-18T22:13:28.199Z,5.83
2018-09-18T22:15:56.792Z,5.77
2018-09-18T22:18:25.331Z,5.40
2018-09-18T22:20:53.929Z,5.50
2018-09-18T22:23:22.494Z,5.57
2018-09-18T22:25:51.026Z,5.50
2018-09-18T22:28:19.615Z,5.40
2018-09-18T22:30:48.284Z,5.40
2018-09-18T22:33:16.941Z,5.47
2018-09-18T22:35:45.513Z,5.07
2018-09-18T22:38:14.207Z,6.10
2018-09-18T22:40:42.707Z,6.33
2018-09-18T22:43:11.327Z,5.27
2018-09-18T22:45:39.877Z,5.63
2018-09-18T22:48:08.559Z,5.10
2018-09-18T22:50:37.165Z,5.30
2018-09-18T22:53:05.781Z,5.67
2018-09-18T22:55:34.340Z,5.03
2018-09-18T22:58:02.818Z,6.13
2018-09-18T23:00:31.327Z,5.90
2018-09-18T23:02:59.913Z,5.47
2018-09-18T23:05:28.461Z,5.63
2018-09-18T23:07:57.062Z,5.70
2018-09-18T23:10:25.809Z,6.60
2018-09-18T23:12:54.512Z,6.03
2018-09-18T23:15:23.180Z,5.93
2018-09-18T23:17:51.842Z,6.17
2018-09-18T23:20:20.355Z,5.77
2018-09-18T23:22:48.890Z,6.10
2018-09-18T23:25:17.397Z,6.53
2018-09-18T23:27:45.852Z,6.20
2018-09-18T23:30:14.284Z,6.20
2018-09-18T23:32:42.805Z,6.70
2018-09-18T23:35:11.286Z,7.07
2018-09-18T23:37:39.899Z,7.53
2018-09-18T23:40:08.482Z,6.50
2018-09-18T23:42:37.059Z,6.37
2018-09-18T23:45:05.696Z,6.10
2018-09-18T23:47:34.362Z,7.20
2018-09-18T23:50:02.961Z,7.60
2018-09-18T23:52:31.592Z,7.23
2018-09-18T23:55:00.209Z,6.60
2018-09-18T23:57:28.843Z,6.40
2018-09-18T23:59:57.432Z,6.23
